Time;durP1;ratioP1;P1;durP2;ratioP2;P2;SDS_P1;SDS_P2;PMS_P1;PMS_P2;Temp;Humidity;BMP_temperature;BMP_pressure;BME280_temperature;BME280_humidity;BME280_pressure;Samples;Min_cycle;Max_cycle;Signal;HPM_P1;HPM_P2
2022/03/06 00:02:07;;;;;;;20.23;11.47;;;;;;;;;;4982730;28;20042;-51
2022/03/06 00:04:33;;;;;;;15.53;10.63;;;;;;;;;;4979633;28;20027;-52
2022/03/06 00:06:59;;;;;;;15.47;10.27;;;;;;;;;;4977476;28;20489;-50
2022/03/06 00:09:25;;;;;;;15.40;10.73;;;;;;;;;;4977885;28;20038;-49
2022/03/06 00:11:51;;;;;;;24.93;11.13;;;;;;;;;;4988845;28;20121;-50
2022/03/06 00:14:17;;;;;;;17.63;10.33;;;;;;;;;;4981268;28;20481;-51
2022/03/06 00:16:44;;;;;;;18.30;10.90;;;;;;;;;;4977713;28;20034;-52
2022/03/06 00:19:10;;;;;;;14.63;10.10;;;;;;;;;;4977296;28;20042;-50
2022/03/06 00:21:36;;;;;;;19.50;10.83;;;;;;;;;;4977379;28;20484;-51
2022/03/06 00:24:02;;;;;;;13.20;10.30;;;;;;;;;;4977265;28;20034;-51
2022/03/06 00:26:28;;;;;;;16.23;10.53;;;;;;;;;;4977347;28;20027;-50
2022/03/06 00:28:54;;;;;;;17.97;10.77;;;;;;;;;;4981524;28;20033;-51
2022/03/06 00:31:22;;;;;;;16.80;10.40;;;;;;;;;;4977334;28;20038;-50
2022/03/06 00:33:49;;;;;;;16.23;10.83;;;;;;;;;;4992299;28;20077;-50
2022/03/06 00:36:16;;;;;;;18.03;10.90;;;;;;;;;;4992692;28;20038;-51
2022/03/06 00:38:42;;;;;;;14.53;10.23;;;;;;;;;;4987709;28;20933;-50
2022/03/06 00:41:08;;;;;;;14.27;10.37;;;;;;;;;;4984917;28;20054;-52
2022/03/06 00:43:34;;;;;;;17.67;10.63;;;;;;;;;;4982528;28;20023;-52
2022/03/06 00:46:00;;;;;;;13.60;9.47;;;;;;;;;;4986926;28;20057;-54
2022/03/06 00:48:26;;;;;;;17.07;9.87;;;;;;;;;;4987625;28;20042;-54
2022/03/06 00:50:52;;;;;;;17.17;10.20;;;;;;;;;;4980108;28;21870;-51
2022/03/06 00:53:18;;;;;;;18.40;11.57;;;;;;;;;;4985510;28;20051;-50
2022/03/06 00:55:44;;;;;;;15.77;10.40;;;;;;;;;;4985906;28;20034;-50
2022/03/06 00:58:12;;;;;;;14.33;9.87;;;;;;;;;;4989038;28;20063;-54
2022/03/06 01:00:40;;;;;;;13.80;9.97;;;;;;;;;;4986727;28;20396;-55
2022/03/06 01:03:07;;;;;;;19.50;10.03;;;;;;;;;;4966958;28;20030;-53
2022/03/06 01:05:34;;;;;;;13.77;10.13;;;;;;;;;;4991701;28;20030;-55
2022/03/06 01:08:00;;;;;;;17.33;10.63;;;;;;;;;;4992497;28;20036;-56
2022/03/06 01:10:26;;;;;;;16.57;10.33;;;;;;;;;;5007430;28;20048;-53
2022/03/06 01:12:53;;;;;;;15.90;9.70;;;;;;;;;;5005244;28;20055;-54
2022/03/06 01:15:19;;;;;;;16.43;10.00;;;;;;;;;;4992045;28;20037;-53
2022/03/06 01:17:45;;;;;;;16.07;10.80;;;;;;;;;;5001248;28;20026;-55
2022/03/06 01:20:11;;;;;;;13.97;9.83;;;;;;;;;;5005042;28;20081;-56
2022/03/06 01:22:38;;;;;;;15.03;9.33;;;;;;;;;;4978573;28;20400;-55
2022/03/06 01:25:05;;;;;;;14.40;9.60;;;;;;;;;;4998291;28;20113;-56
2022/03/06 01:27:31;;;;;;;15.13;10.03;;;;;;;;;;4995539;28;20037;-55
2022/03/06 01:29:57;;;;;;;17.87;9.53;;;;;;;;;;4991436;28;20023;-56
2022/03/06 01:32:23;;;;;;;18.80;10.67;;;;;;;;;;4992231;28;20027;-54
2022/03/06 01:34:49;;;;;;;19.80;10.67;;;;;;;;;;5008514;28;20447;-56
2022/03/06 01:37:15;;;;;;;15.27;10.23;;;;;;;;;;4996061;28;20034;-53
2022/03/06 01:39:41;;;;;;;17.93;10.50;;;;;;;;;;4990157;28;20172;-50
2022/03/06 01:42:07;;;;;;;17.00;10.80;;;;;;;;;;4989590;28;20515;-50
2022/03/06 01:44:33;;;;;;;16.00;10.90;;;;;;;;;;4993486;28;20133;-52
2022/03/06 01:46:59;;;;;;;14.77;10.33;;;;;;;;;;5000635;28;20026;-50
2022/03/06 01:49:25;;;;;;;14.80;9.90;;;;;;;;;;4982320;28;20480;-53
2022/03/06 01:51:51;;;;;;;18.67;11.00;;;;;;;;;;4987655;28;20031;-51
2022/03/06 01:54:42;;;;;;;13.90;9.80;;;;;;;;;;4982427;28;20050;-54
2022/03/06 01:57:14;;;;;;;17.90;10.83;;;;;;;;;;4994832;28;20019;-53
2022/03/06 01:59:40;;;;;;;16.30;11.37;;;;;;;;;;4994536;28;20045;-51
2022/03/06 02:02:06;;;;;;;18.57;11.70;;;;;;;;;;4990449;28;20039;-53
2022/03/06 02:04:32;;;;;;;18.93;11.47;;;;;;;;;;4974993;28;20027;-50
2022/03/06 02:06:59;;;;;;;16.83;11.53;;;;;;;;;;4973788;28;20034;-52
2022/03/06 02:09:25;;;;;;;15.07;11.07;;;;;;;;;;4992213;28;20037;-49
2022/03/06 02:14:36;;;;;;;17.55;11.60;;;;;;;;;;4974833;28;20045;-52
2022/03/06 02:17:02;;;;;;;18.67;12.23;;;;;;;;;;4974959;28;20031;-54
2022/03/06 02:19:28;;;;;;;19.93;11.83;;;;;;;;;;4991729;28;20030;-50
2022/03/06 02:21:54;;;;;;;17.50;11.57;;;;;;;;;;4992217;28;20065;-53
2022/03/06 02:24:20;;;;;;;19.03;11.77;;;;;;;;;;4974782;28;20488;-52
2022/03/06 02:26:46;;;;;;;20.43;12.23;;;;;;;;;;4976556;28;20542;-53
2022/03/06 02:29:12;;;;;;;18.23;11.23;;;;;;;;;;5003493;28;20026;-52
2022/03/06 02:31:38;;;;;;;17.37;10.53;;;;;;;;;;5011799;28;20498;-51
2022/03/06 02:34:04;;;;;;;14.57;11.07;;;;;;;;;;4989922;28;20030;-51
2022/03/06 02:36:31;;;;;;;18.13;10.73;;;;;;;;;;4999605;28;20434;-51
2022/03/06 02:38:56;;;;;;;19.50;10.57;;;;;;;;;;4995186;28;20026;-50
2022/03/06 02:41:22;;;;;;;16.70;10.30;;;;;;;;;;4997125;28;20048;-50
2022/03/06 02:43:48;;;;;;;17.03;11.17;;;;;;;;;;4994828;28;20430;-51
2022/03/06 02:46:14;;;;;;;19.17;11.33;;;;;;;;;;5014017;28;20037;-54
2022/03/06 02:48:40;;;;;;;17.03;11.70;;;;;;;;;;4998748;28;20026;-51
2022/03/06 02:51:06;;;;;;;19.67;11.47;;;;;;;;;;4999789;28;20387;-51
2022/03/06 02:53:32;;;;;;;16.80;11.37;;;;;;;;;;4997802;28;20049;-50
2022/03/06 02:55:59;;;;;;;18.67;11.07;;;;;;;;;;4998125;28;20035;-51
2022/03/06 02:58:25;;;;;;;17.67;11.57;;;;;;;;;;4995490;28;20080;-49
2022/03/06 03:00:51;;;;;;;16.17;11.60;;;;;;;;;;5005115;28;20042;-51
2022/03/06 03:03:17;;;;;;;18.03;11.80;;;;;;;;;;4988119;28;20027;-52
2022/03/06 03:05:43;;;;;;;17.00;12.17;;;;;;;;;;4976442;28;20038;-51
2022/03/06 03:08:09;;;;;;;18.90;12.33;;;;;;;;;;4994242;28;20037;-53
2022/03/06 03:10:35;;;;;;;18.70;10.97;;;;;;;;;;5002273;28;20030;-52
2022/03/06 03:13:01;;;;;;;17.60;12.10;;;;;;;;;;5001672;28;20054;-52
2022/03/06 03:15:27;;;;;;;18.77;10.93;;;;;;;;;;5001095;28;20423;-50
2022/03/06 03:17:53;;;;;;;17.87;11.40;;;;;;;;;;4988042;28;20026;-53
2022/03/06 03:20:19;;;;;;;18.13;11.60;;;;;;;;;;4996084;28;20516;-50
2022/03/06 03:22:45;;;;;;;15.60;10.23;;;;;;;;;;5005841;28;20026;-56
2022/03/06 03:25:12;;;;;;;16.13;9.93;;;;;;;;;;4990511;28;20026;-53
2022/03/06 03:27:38;;;;;;;15.77;11.17;;;;;;;;;;4995490;28;20031;-56
2022/03/06 03:30:05;;;;;;;18.97;12.13;;;;;;;;;;4996677;28;20034;-52
2022/03/06 03:32:31;;;;;;;17.07;10.30;;;;;;;;;;4997262;28;20077;-55
2022/03/06 03:34:57;;;;;;;18.90;11.63;;;;;;;;;;5006296;28;20475;-52
2022/03/06 03:37:23;;;;;;;18.67;11.57;;;;;;;;;;4992003;28;20042;-50
2022/03/06 03:39:49;;;;;;;17.67;11.20;;;;;;;;;;5011161;28;20037;-56
2022/03/06 03:42:15;;;;;;;19.23;10.90;;;;;;;;;;5009091;28;20163;-55
2022/03/06 03:44:41;;;;;;;18.00;11.07;;;;;;;;;;4998449;28;20164;-51
2022/03/06 03:47:07;;;;;;;20.13;11.47;;;;;;;;;;4999574;28;20037;-52
2022/03/06 03:49:34;;;;;;;17.13;11.67;;;;;;;;;;4993693;28;20033;-53
2022/03/06 03:52:00;;;;;;;17.40;11.37;;;;;;;;;;5011415;28;20677;-50
2022/03/06 03:54:26;;;;;;;17.70;11.43;;;;;;;;;;4984971;28;20058;-50
2022/03/06 03:56:52;;;;;;;17.70;11.70;;;;;;;;;;5000318;28;20030;-54
2022/03/06 03:59:18;;;;;;;19.37;12.10;;;;;;;;;;4992739;28;20030;-51
2022/03/06 04:01:44;;;;;;;15.67;11.60;;;;;;;;;;4996283;28;20077;-51
2022/03/06 04:04:10;;;;;;;20.00;11.53;;;;;;;;;;4991294;28;20026;-51
2022/03/06 04:06:36;;;;;;;19.23;12.00;;;;;;;;;;5008625;28;20034;-52
2022/03/06 04:09:02;;;;;;;18.43;11.60;;;;;;;;;;4993301;28;20029;-51
2022/03/06 04:11:28;;;;;;;19.07;11.87;;;;;;;;;;4993126;28;20026;-51
2022/03/06 04:13:54;;;;;;;19.63;11.80;;;;;;;;;;4996043;28;20171;-55
2022/03/06 04:16:20;;;;;;;17.67;11.03;;;;;;;;;;4993354;28;20076;-52
2022/03/06 04:18:46;;;;;;;18.80;10.90;;;;;;;;;;4992146;28;20026;-53
2022/03/06 04:21:12;;;;;;;20.37;12.43;;;;;;;;;;5003334;28;20041;-52
2022/03/06 04:23:38;;;;;;;21.63;11.80;;;;;;;;;;4968837;28;20443;-51
2022/03/06 04:26:04;;;;;;;20.43;11.47;;;;;;;;;;5001665;28;20103;-51
2022/03/06 04:28:31;;;;;;;19.23;12.00;;;;;;;;;;4985942;28;20118;-54
2022/03/06 04:30:57;;;;;;;17.50;10.93;;;;;;;;;;4993807;28;20026;-50
2022/03/06 04:33:24;;;;;;;17.73;11.93;;;;;;;;;;4994341;28;20085;-51
2022/03/06 04:35:50;;;;;;;21.00;12.63;;;;;;;;;;5009323;28;20034;-50
2022/03/06 04:38:16;;;;;;;17.43;11.80;;;;;;;;;;4977555;28;20030;-55
2022/03/06 04:40:42;;;;;;;21.80;12.90;;;;;;;;;;4996239;28;22142;-55
2022/03/06 04:43:08;;;;;;;20.20;12.43;;;;;;;;;;4977795;28;20030;-52
2022/03/06 04:45:34;;;;;;;22.00;13.10;;;;;;;;;;5000392;28;20049;-54
2022/03/06 04:48:00;;;;;;;21.70;12.63;;;;;;;;;;4995747;28;20030;-50
2022/03/06 04:50:26;;;;;;;20.20;12.60;;;;;;;;;;4993650;28;20035;-55
2022/03/06 04:52:52;;;;;;;20.50;13.23;;;;;;;;;;4976610;28;20058;-50
2022/03/06 04:55:18;;;;;;;19.57;12.30;;;;;;;;;;4994160;28;20403;-51
2022/03/06 04:57:46;;;;;;;19.20;11.90;;;;;;;;;;4993272;28;20034;-53
2022/03/06 05:00:13;;;;;;;19.83;12.53;;;;;;;;;;4992531;28;20031;-52
2022/03/06 05:02:39;;;;;;;16.50;11.43;;;;;;;;;;5009714;28;20041;-51
2022/03/06 05:05:05;;;;;;;18.23;11.77;;;;;;;;;;4991763;28;20034;-51
2022/03/06 05:07:31;;;;;;;17.77;11.63;;;;;;;;;;4987444;28;20088;-51
2022/03/06 05:09:57;;;;;;;18.03;11.80;;;;;;;;;;4997353;28;20030;-52
2022/03/06 05:12:23;;;;;;;19.33;12.27;;;;;;;;;;5014861;28;20084;-51
2022/03/06 05:14:49;;;;;;;23.33;12.47;;;;;;;;;;5010007;28;20040;-50
2022/03/06 05:17:16;;;;;;;19.10;12.30;;;;;;;;;;5015918;28;20025;-55
2022/03/06 05:19:42;;;;;;;18.83;12.60;;;;;;;;;;4989707;28;20030;-51
2022/03/06 05:22:08;;;;;;;19.30;12.63;;;;;;;;;;4999241;28;20042;-52
2022/03/06 05:24:34;;;;;;;21.90;12.90;;;;;;;;;;4993001;28;20061;-51
2022/03/06 05:27:00;;;;;;;20.50;12.63;;;;;;;;;;5011533;28;20037;-51
2022/03/06 05:29:26;;;;;;;22.73;12.77;;;;;;;;;;4992587;28;20031;-51
2022/03/06 05:31:52;;;;;;;17.30;12.20;;;;;;;;;;4991623;28;20026;-51
2022/03/06 05:34:18;;;;;;;23.57;13.73;;;;;;;;;;4984743;28;20026;-53
2022/03/06 05:36:44;;;;;;;19.47;12.47;;;;;;;;;;5010021;28;20496;-53
2022/03/06 05:39:10;;;;;;;18.27;11.70;;;;;;;;;;5004748;28;20101;-56
2022/03/06 05:41:36;;;;;;;18.97;12.37;;;;;;;;;;5014996;28;20046;-51
2022/03/06 05:44:02;;;;;;;20.23;12.23;;;;;;;;;;5004250;28;20033;-55
2022/03/06 05:46:28;;;;;;;17.97;12.30;;;;;;;;;;5004543;28;20030;-51
2022/03/06 05:48:54;;;;;;;19.87;12.83;;;;;;;;;;4995768;28;20419;-51
2022/03/06 05:51:20;;;;;;;20.27;11.83;;;;;;;;;;5012084;28;20033;-50
2022/03/06 05:53:46;;;;;;;19.30;12.53;;;;;;;;;;4994059;28;20479;-50
2022/03/06 05:56:13;;;;;;;21.40;12.60;;;;;;;;;;4994099;28;20030;-49
2022/03/06 05:58:39;;;;;;;19.43;11.93;;;;;;;;;;4990268;28;20378;-50
2022/03/06 06:01:05;;;;;;;19.53;11.77;;;;;;;;;;5005936;28;20052;-52
2022/03/06 06:03:31;;;;;;;20.53;12.53;;;;;;;;;;4984408;28;20098;-52
2022/03/06 06:05:57;;;;;;;18.20;11.73;;;;;;;;;;5003318;28;20121;-50
2022/03/06 06:08:23;;;;;;;18.37;12.47;;;;;;;;;;5003304;28;20034;-50
2022/03/06 06:10:49;;;;;;;21.63;12.37;;;;;;;;;;4997625;28;20093;-50
2022/03/06 06:13:15;;;;;;;22.53;12.80;;;;;;;;;;5000289;28;20030;-48
2022/03/06 06:15:43;;;;;;;19.70;12.50;;;;;;;;;;5011170;28;20490;-48
2022/03/06 06:18:10;;;;;;;18.40;12.80;;;;;;;;;;4994843;28;20117;-51
2022/03/06 06:20:36;;;;;;;19.30;12.60;;;;;;;;;;4995778;28;20510;-54
2022/03/06 06:23:03;;;;;;;19.77;13.63;;;;;;;;;;4997825;28;20043;-55
2022/03/06 06:25:29;;;;;;;19.93;13.50;;;;;;;;;;4997350;28;20032;-55
2022/03/06 06:27:55;;;;;;;22.37;13.17;;;;;;;;;;4999624;28;20392;-50
2022/03/06 06:30:21;;;;;;;22.33;13.27;;;;;;;;;;4989315;28;20026;-52
2022/03/06 06:32:47;;;;;;;20.00;13.03;;;;;;;;;;5010430;28;20368;-51
2022/03/06 06:35:13;;;;;;;23.60;13.27;;;;;;;;;;4993926;28;20105;-51
2022/03/06 06:37:39;;;;;;;20.73;13.87;;;;;;;;;;4998610;28;20030;-55
2022/03/06 06:40:06;;;;;;;20.70;13.70;;;;;;;;;;4998931;28;20212;-54
2022/03/06 06:42:32;;;;;;;19.57;13.73;;;;;;;;;;4994919;28;20038;-51
2022/03/06 06:44:58;;;;;;;21.77;13.13;;;;;;;;;;4989207;28;20034;-54
2022/03/06 06:47:24;;;;;;;23.70;13.43;;;;;;;;;;4995007;28;20062;-53
2022/03/06 06:49:50;;;;;;;21.30;14.40;;;;;;;;;;4993600;28;22225;-50
2022/03/06 06:52:16;;;;;;;23.47;13.57;;;;;;;;;;5004056;28;20057;-50
2022/03/06 06:54:42;;;;;;;22.43;14.20;;;;;;;;;;4991377;28;20110;-52
2022/03/06 06:57:08;;;;;;;21.40;12.70;;;;;;;;;;4991241;28;20061;-51
2022/03/06 06:59:34;;;;;;;24.80;14.97;;;;;;;;;;4980060;28;20031;-50
2022/03/06 07:02:00;;;;;;;18.83;13.60;;;;;;;;;;4990708;28;20042;-51
2022/03/06 07:04:26;;;;;;;23.90;14.00;;;;;;;;;;4992058;28;20539;-55
2022/03/06 07:06:52;;;;;;;23.60;13.90;;;;;;;;;;4993747;28;20068;-53
2022/03/06 07:09:18;;;;;;;20.70;13.63;;;;;;;;;;4978189;28;20027;-52
2022/03/06 07:11:44;;;;;;;21.17;14.30;;;;;;;;;;4986203;28;20522;-50
2022/03/06 07:14:10;;;;;;;24.33;13.73;;;;;;;;;;4982285;28;20030;-51
2022/03/06 07:16:36;;;;;;;22.90;13.83;;;;;;;;;;4974634;28;20035;-51
2022/03/06 07:19:02;;;;;;;20.07;12.83;;;;;;;;;;4980012;28;20162;-53
2022/03/06 07:21:28;;;;;;;22.80;14.37;;;;;;;;;;4974415;28;20038;-49
2022/03/06 07:23:54;;;;;;;20.13;13.20;;;;;;;;;;4974512;28;20038;-51
2022/03/06 07:26:20;;;;;;;20.27;13.50;;;;;;;;;;4980504;28;20037;-51
2022/03/06 07:28:46;;;;;;;18.20;12.87;;;;;;;;;;4992786;28;20058;-53
2022/03/06 07:31:12;;;;;;;19.17;13.23;;;;;;;;;;4993551;28;20125;-51
2022/03/06 07:33:38;;;;;;;22.57;14.73;;;;;;;;;;4989641;28;20137;-50
2022/03/06 07:36:05;;;;;;;19.80;13.43;;;;;;;;;;4993359;28;20532;-51
2022/03/06 07:38:31;;;;;;;22.77;14.50;;;;;;;;;;4991233;28;20026;-51
2022/03/06 07:40:57;;;;;;;19.07;14.00;;;;;;;;;;4993361;28;20045;-51
2022/03/06 07:43:23;;;;;;;22.43;14.07;;;;;;;;;;4988941;28;20018;-50
2022/03/06 07:45:49;;;;;;;19.40;13.63;;;;;;;;;;4977869;28;20061;-52
2022/03/06 07:48:15;;;;;;;20.60;13.80;;;;;;;;;;4993840;28;20054;-52
2022/03/06 07:50:41;;;;;;;21.00;13.77;;;;;;;;;;4990446;28;20070;-52
2022/03/06 07:53:08;;;;;;;19.03;13.67;;;;;;;;;;4973809;28;20063;-50
2022/03/06 07:55:34;;;;;;;22.37;13.73;;;;;;;;;;4974047;28;20115;-52
2022/03/06 07:58:00;;;;;;;19.33;13.50;;;;;;;;;;4974683;28;20035;-50
2022/03/06 08:00:26;;;;;;;23.90;14.17;;;;;;;;;;4974121;28;20412;-50
2022/03/06 08:02:55;;;;;;;21.87;14.23;;;;;;;;;;4974489;28;20035;-51
2022/03/06 08:05:21;;;;;;;20.30;13.87;;;;;;;;;;4988667;28;20022;-51
2022/03/06 08:07:47;;;;;;;20.73;13.63;;;;;;;;;;4986085;28;20034;-52
2022/03/06 08:10:13;;;;;;;22.10;13.63;;;;;;;;;;4976615;28;20116;-50
2022/03/06 08:12:43;;;;;;;23.70;14.20;;;;;;;;;;4980181;28;20485;-50
2022/03/06 08:15:09;;;;;;;18.17;12.43;;;;;;;;;;4979066;28;20168;-53
2022/03/06 08:17:36;;;;;;;20.43;13.23;;;;;;;;;;4977546;28;20563;-52
2022/03/06 08:20:03;;;;;;;20.67;13.33;;;;;;;;;;4983578;28;20045;-51
2022/03/06 08:22:29;;;;;;;20.53;13.87;;;;;;;;;;4982833;28;20183;-49
2022/03/06 08:24:56;;;;;;;21.17;13.07;;;;;;;;;;4977480;28;20446;-49
2022/03/06 08:27:22;;;;;;;17.63;11.50;;;;;;;;;;4979856;28;20027;-51
2022/03/06 08:29:48;;;;;;;17.33;11.60;;;;;;;;;;4996814;28;20389;-54
2022/03/06 08:32:15;;;;;;;16.43;10.73;;;;;;;;;;4986463;28;20038;-54
2022/03/06 08:34:41;;;;;;;18.93;11.60;;;;;;;;;;4996406;28;20033;-50
2022/03/06 08:37:07;;;;;;;19.40;11.70;;;;;;;;;;4986398;28;20484;-53
2022/03/06 08:39:34;;;;;;;16.27;11.50;;;;;;;;;;4988093;28;20053;-54
2022/03/06 08:42:00;;;;;;;16.70;11.50;;;;;;;;;;4984996;28;20084;-52
2022/03/06 08:44:26;;;;;;;16.57;11.47;;;;;;;;;;4996334;28;20396;-51
2022/03/06 08:46:52;;;;;;;19.40;15.20;;;;;;;;;;4976443;28;20035;-52
2022/03/06 08:49:18;;;;;;;15.50;9.80;;;;;;;;;;4978545;28;20042;-54
2022/03/06 08:51:44;;;;;;;20.80;11.23;;;;;;;;;;4978712;28;20027;-51
2022/03/06 08:54:10;;;;;;;20.17;11.33;;;;;;;;;;4976723;28;20062;-61
2022/03/06 08:56:36;;;;;;;19.53;11.50;;;;;;;;;;4993523;28;20034;-56
2022/03/06 08:59:02;;;;;;;16.67;10.27;;;;;;;;;;4996203;28;20029;-49
2022/03/06 09:01:29;;;;;;;15.87;11.37;;;;;;;;;;4976753;28;20043;-56
2022/03/06 09:03:55;;;;;;;18.60;10.83;;;;;;;;;;4976642;28;20380;-52
2022/03/06 09:06:21;;;;;;;20.20;11.33;;;;;;;;;;4983519;28;20113;-55
2022/03/06 09:08:47;;;;;;;16.23;10.63;;;;;;;;;;4962974;28;20102;-54
2022/03/06 09:11:13;;;;;;;17.73;11.00;;;;;;;;;;4976980;28;20022;-52
2022/03/06 09:13:39;;;;;;;15.13;10.27;;;;;;;;;;4995168;28;20146;-52
2022/03/06 09:16:06;;;;;;;17.27;11.50;;;;;;;;;;4982576;28;20063;-50
2022/03/06 09:18:32;;;;;;;15.80;10.63;;;;;;;;;;4994764;28;20113;-49
2022/03/06 09:20:58;;;;;;;17.20;12.57;;;;;;;;;;4988228;28;20133;-47
2022/03/06 09:23:25;;;;;;;17.97;11.07;;;;;;;;;;4996678;28;20507;-51
2022/03/06 09:25:51;;;;;;;18.23;10.53;;;;;;;;;;4994555;28;20058;-51
2022/03/06 09:28:17;;;;;;;16.37;10.60;;;;;;;;;;4989914;28;20036;-49
2022/03/06 09:30:43;;;;;;;13.47;10.70;;;;;;;;;;4992443;28;20030;-49
2022/03/06 09:33:09;;;;;;;20.23;12.87;;;;;;;;;;4995714;28;20035;-47
2022/03/06 09:35:36;;;;;;;14.83;11.57;;;;;;;;;;4989374;28;20038;-49
2022/03/06 09:38:02;;;;;;;18.10;10.90;;;;;;;;;;4986449;28;20427;-48
2022/03/06 09:40:28;;;;;;;12.67;9.33;;;;;;;;;;4992884;28;20058;-47
2022/03/06 09:42:54;;;;;;;14.47;10.03;;;;;;;;;;4993782;28;20484;-48
2022/03/06 09:45:22;;;;;;;16.40;9.70;;;;;;;;;;4987242;28;20122;-58
2022/03/06 09:47:48;;;;;;;17.40;10.70;;;;;;;;;;4991376;28;20039;-61
2022/03/06 09:50:15;;;;;;;17.27;11.07;;;;;;;;;;4993695;28;20065;-66
2022/03/06 09:52:41;;;;;;;16.47;10.50;;;;;;;;;;4994779;28;20082;-52
2022/03/06 09:55:08;;;;;;;14.90;10.87;;;;;;;;;;4988726;28;20030;-57
2022/03/06 09:57:34;;;;;;;17.67;10.77;;;;;;;;;;4977221;28;20122;-61
2022/03/06 10:00:00;;;;;;;18.73;11.33;;;;;;;;;;4992546;28;20473;-58
2022/03/06 10:02:26;;;;;;;15.27;10.07;;;;;;;;;;4986867;28;20373;-47
2022/03/06 10:04:52;;;;;;;12.00;8.97;;;;;;;;;;4987056;28;20026;-46
2022/03/06 10:07:21;;;;;;;14.43;10.13;;;;;;;;;;4990307;28;20476;-46
2022/03/06 10:09:47;;;;;;;13.37;9.43;;;;;;;;;;4986941;28;20023;-48
2022/03/06 10:12:24;;;;;;;13.83;9.90;;;;;;;;;;4986446;28;20080;-46
2022/03/06 10:14:51;;;;;;;15.37;10.30;;;;;;;;;;4987533;28;20109;-48
2022/03/06 10:17:37;;;;;;;13.13;9.43;;;;;;;;;;4984363;28;20054;-46
2022/03/06 10:20:10;;;;;;;14.83;10.63;;;;;;;;;;4991743;28;20045;-46
2022/03/06 10:22:37;;;;;;;16.57;11.13;;;;;;;;;;4994217;28;20046;-47
2022/03/06 10:25:06;;;;;;;14.40;9.03;;;;;;;;;;4992450;28;20050;-48
2022/03/06 10:27:57;;;;;;;11.13;8.50;;;;;;;;;;4993890;28;20035;-46
2022/03/06 10:30:23;;;;;;;14.17;9.87;;;;;;;;;;4981426;28;20039;-47
2022/03/06 10:32:49;;;;;;;19.50;12.90;;;;;;;;;;4978303;28;20044;-47
2022/03/06 10:35:15;;;;;;;16.60;10.87;;;;;;;;;;4974557;28;20077;-47
2022/03/06 10:37:41;;;;;;;16.67;12.43;;;;;;;;;;4980803;28;20101;-46
2022/03/06 10:40:07;;;;;;;14.80;10.67;;;;;;;;;;4986860;28;20487;-46
2022/03/06 10:42:34;;;;;;;13.63;9.03;;;;;;;;;;4991211;28;20117;-46
2022/03/06 10:45:00;;;;;;;11.60;9.20;;;;;;;;;;4979857;28;20027;-47
2022/03/06 10:47:26;;;;;;;13.00;9.20;;;;;;;;;;4974268;28;20435;-46
2022/03/06 10:49:59;;;;;;;12.50;9.80;;;;;;;;;;4990855;28;20460;-46
2022/03/06 10:52:25;;;;;;;15.10;11.10;;;;;;;;;;5005703;28;20404;-46
2022/03/06 10:54:55;;;;;;;15.33;9.17;;;;;;;;;;4992732;28;20065;-47
2022/03/06 10:57:22;;;;;;;13.40;9.67;;;;;;;;;;4985282;28;20053;-47
2022/03/06 10:59:49;;;;;;;18.63;9.90;;;;;;;;;;4992602;28;20026;-47
2022/03/06 11:02:15;;;;;;;16.50;10.07;;;;;;;;;;4995764;28;20085;-46
2022/03/06 11:04:42;;;;;;;15.47;10.10;;;;;;;;;;4986850;28;20034;-46
2022/03/06 11:07:09;;;;;;;14.73;11.13;;;;;;;;;;4975983;28;20030;-46
2022/03/06 11:09:35;;;;;;;16.83;9.90;;;;;;;;;;4992253;28;20101;-47
2022/03/06 11:12:03;;;;;;;14.40;10.37;;;;;;;;;;4993474;28;20507;-46
2022/03/06 11:14:31;;;;;;;13.77;10.90;;;;;;;;;;4993426;28;20366;-47
2022/03/06 11:16:57;;;;;;;13.70;10.20;;;;;;;;;;4981403;28;20073;-46
2022/03/06 11:19:23;;;;;;;17.10;11.67;;;;;;;;;;4993806;28;20062;-46
2022/03/06 11:21:50;;;;;;;15.67;11.70;;;;;;;;;;4974450;28;20193;-47
2022/03/06 11:24:21;;;;;;;15.83;10.67;;;;;;;;;;4973320;28;20038;-47
2022/03/06 11:26:47;;;;;;;15.73;10.77;;;;;;;;;;4989528;28;20388;-48
2022/03/06 11:29:13;;;;;;;16.97;11.70;;;;;;;;;;4997096;28;20038;-47
2022/03/06 11:31:58;;;;;;;15.23;12.00;;;;;;;;;;4983337;28;20030;-46
2022/03/06 11:34:24;;;;;;;14.30;10.57;;;;;;;;;;4973985;28;20027;-47
2022/03/06 11:36:50;;;;;;;15.53;11.60;;;;;;;;;;4989885;28;20090;-48
2022/03/06 11:39:31;;;;;;;17.27;11.63;;;;;;;;;;4975624;28;20058;-46
2022/03/06 11:42:02;;;;;;;12.63;11.00;;;;;;;;;;4983524;28;20049;-47
2022/03/06 11:44:33;;;;;;;14.27;10.97;;;;;;;;;;4993228;28;20535;-48
2022/03/06 11:46:59;;;;;;;16.53;11.33;;;;;;;;;;4991836;28;20376;-47
2022/03/06 11:49:34;;;;;;;14.50;11.23;;;;;;;;;;4978531;28;20027;-46
2022/03/06 11:52:00;;;;;;;15.18;10.73;;;;;;;;;;4981371;28;20034;-48
2022/03/06 11:54:40;;;;;;;15.90;11.47;;;;;;;;;;4994391;28;20058;-47
2022/03/06 11:57:06;;;;;;;15.57;10.07;;;;;;;;;;4996973;28;20081;-46
2022/03/06 11:59:33;;;;;;;15.10;10.73;;;;;;;;;;4979368;28;20029;-47
2022/03/06 12:02:05;;;;;;;14.00;9.97;;;;;;;;;;4977128;28;20045;-46
2022/03/06 12:04:33;;;;;;;18.27;10.60;;;;;;;;;;4987051;28;20027;-47
2022/03/06 12:07:03;;;;;;;15.90;11.00;;;;;;;;;;4997056;28;20026;-46
2022/03/06 12:09:30;;;;;;;16.30;11.87;;;;;;;;;;4981089;28;20358;-46
2022/03/06 12:11:58;;;;;;;16.50;11.20;;;;;;;;;;4996582;28;20101;-47
2022/03/06 12:14:28;;;;;;;14.37;10.93;;;;;;;;;;4988067;28;20058;-49
2022/03/06 12:17:04;;;;;;;16.90;11.57;;;;;;;;;;4992459;28;20030;-49
2022/03/06 12:19:37;;;;;;;14.20;10.93;;;;;;;;;;4995371;28;20037;-50
2022/03/06 12:22:10;;;;;;;15.67;11.37;;;;;;;;;;5014881;28;20034;-48
2022/03/06 12:24:36;;;;;;;16.47;11.83;;;;;;;;;;4995446;28;20030;-47
2022/03/06 12:27:12;;;;;;;17.57;11.70;;;;;;;;;;4978849;28;20130;-47
2022/03/06 12:29:47;;;;;;;17.50;12.05;;;;;;;;;;4995426;28;20037;-47
2022/03/06 12:32:25;;;;;;;15.57;11.43;;;;;;;;;;4995927;28;20121;-46
2022/03/06 12:35:00;;;;;;;15.82;11.45;;;;;;;;;;4990072;28;20027;-46
2022/03/06 12:37:32;;;;;;;15.03;11.23;;;;;;;;;;4996152;28;20034;-48
2022/03/06 12:39:59;;;;;;;16.23;11.70;;;;;;;;;;4995918;28;20170;-47
2022/03/06 12:42:29;;;;;;;14.30;11.37;;;;;;;;;;4995891;28;20043;-46
2022/03/06 12:44:57;;;;;;;14.43;11.48;;;;;;;;;;4977205;28;20085;-46
2022/03/06 12:47:23;;;;;;;14.20;11.13;;;;;;;;;;4988608;28;20030;-47
2022/03/06 12:49:50;;;;;;;15.90;11.20;;;;;;;;;;4992676;28;20041;-46
2022/03/06 12:52:17;;;;;;;15.18;11.27;;;;;;;;;;4994621;28;20034;-46
2022/03/06 12:54:45;;;;;;;13.37;10.53;;;;;;;;;;4991909;28;20030;-46
2022/03/06 12:57:11;;;;;;;14.30;10.77;;;;;;;;;;4995792;28;20034;-46
2022/03/06 12:59:40;;;;;;;13.17;10.67;;;;;;;;;;4992780;28;20516;-46
2022/03/06 13:02:07;;;;;;;14.73;10.87;;;;;;;;;;4991875;28;20068;-48
2022/03/06 13:04:34;;;;;;;14.87;12.20;;;;;;;;;;4984770;28;20022;-46
2022/03/06 13:07:00;;;;;;;13.75;10.60;;;;;;;;;;4994163;28;20034;-45
2022/03/06 13:09:29;;;;;;;15.17;11.90;;;;;;;;;;4997516;28;20030;-47
2022/03/06 13:11:56;;;;;;;19.42;11.77;;;;;;;;;;4993438;28;20057;-46
2022/03/06 13:14:29;;;;;;;16.50;11.40;;;;;;;;;;4993598;28;20034;-46
2022/03/06 13:16:56;;;;;;;17.40;11.63;;;;;;;;;;4995382;28;20031;-45
2022/03/06 13:19:22;;;;;;;17.70;11.85;;;;;;;;;;4991694;28;20113;-45
2022/03/06 13:21:48;;;;;;;13.90;11.97;;;;;;;;;;4995495;28;20081;-45
2022/03/06 13:24:15;;;;;;;16.27;11.85;;;;;;;;;;4984684;28;20037;-45
2022/03/06 13:26:41;;;;;;;17.77;11.95;;;;;;;;;;4976470;28;20038;-46
2022/03/06 13:29:12;;;;;;;15.57;11.07;;;;;;;;;;4992461;28;20119;-45
2022/03/06 13:31:56;;;;;;;15.32;11.85;;;;;;;;;;4980444;28;20058;-45
2022/03/06 13:34:22;;;;;;;17.75;13.40;;;;;;;;;;4986958;28;20124;-45
2022/03/06 13:36:49;;;;;;;16.90;12.98;;;;;;;;;;4995805;28;20065;-45
2022/03/06 13:39:16;;;;;;;17.47;12.63;;;;;;;;;;4983115;28;20378;-46
2022/03/06 13:50:53;;;;;;;19.52;12.27;;;;;;;;;;4988669;28;20085;-47
2022/03/06 13:53:19;;;;;;;22.50;13.07;;;;;;;;;;4993277;28;20050;-51
2022/03/06 13:55:47;;;;;;;16.67;12.05;;;;;;;;;;4976891;28;20034;-49
2022/03/06 13:58:18;;;;;;;16.52;12.02;;;;;;;;;;4991568;28;20033;-49
2022/03/06 14:00:49;;;;;;;14.00;10.68;;;;;;;;;;5000022;28;20519;-49
2022/03/06 14:03:34;;;;;;;18.02;12.20;;;;;;;;;;4993918;28;20488;-48
2022/03/06 14:06:01;;;;;;;20.00;12.43;;;;;;;;;;4995053;28;20046;-49
2022/03/06 14:08:29;;;;;;;19.03;12.53;;;;;;;;;;4986202;28;20072;-49
2022/03/06 14:10:56;;;;;;;16.00;12.63;;;;;;;;;;4994825;28;20084;-51
2022/03/06 14:13:37;;;;;;;17.40;11.88;;;;;;;;;;4994263;28;20061;-47
2022/03/06 14:16:03;;;;;;;18.67;11.55;;;;;;;;;;4985747;28;20388;-47
2022/03/06 14:18:52;;;;;;;15.00;11.38;;;;;;;;;;4993287;28;20506;-48
2022/03/06 14:21:18;;;;;;;16.52;12.40;;;;;;;;;;4980934;28;20046;-45
2022/03/06 14:23:52;;;;;;;16.73;12.27;;;;;;;;;;4994384;28;20122;-46
2022/03/06 14:26:20;;;;;;;18.30;12.25;;;;;;;;;;4994170;28;20030;-52
2022/03/06 14:28:53;;;;;;;16.25;12.13;;;;;;;;;;4993939;28;20203;-47
2022/03/06 14:31:19;;;;;;;16.10;12.00;;;;;;;;;;4994003;28;20477;-46